Westboro, Missouri
Current Conditions -  °F | °C
As of 4:55 PM on Thursday 23 Oct 2014 (Local Time) from KSDA Reporting Station
Clear Clear  
Wind Chill: 72°   Ceiling: Unl
Heat Index: 72°   Visibility: 10mi
Dew Point: 48°   Wind: 0mph
Humidity: 43%   Direction: NA
Pressure: 30.02"   Gusts: NA
Location:  40.53°N, 95.32°W
Report Text: KSDA 232155Z AUTO 00000KT 10SM CLR 22/09 A3002 RMK AO2
Loading
Personal Weather Stations






























Interactive Weather Map
Tropical Storm Tracking
New forecast layout! Learn more

10-Day Weather Forecast

Advertisements
Track Severe Weather on mobile